Airfield :
LOGIN :

Register | Disclaimer

   EN    FR    IT 

 










Legend :    VFR   Marginal VFR   IFR   Intensive IFR   Very Intensive IFR
Visi :
Ceiling :
>= 8 km
>= 3000ft
5 to 8 km
1000 to 3000 ft
1500m to 5 km
500 to 1000 ft
800 to 1500m
200 to 500 ft
< 800m
< 200 ft
Symbols :   Thunderstorms  Fog  Heavy snow  Heavy precipitations  Wind > 20 kt
SIGMETs :     Misc.  Thunderstorms  Icing  Turbulence  Mountain Waves  Volcanic Ashes







- Airport Elevation : 1465 ft


LSMP - Payerne

CURRENT METAR :
  • 181550Z 24015KT 9000 -RA FEW019 BKN029 OVC034 06/04 Q1012 RMK BLU

EXPIRED METARs :
  • 181250Z 24015KT 9999 -RA FEW034 OVC039 06/03 Q1013 RMK BLU

Expired Forecast.
No reported NOTAMs for that airfield.
1 SIGMET reported for the Switzerland FIR (LSAS) :
 
Severe turbulence
LSAS SIGMET 3 VALID 181500/181800 LSZH
LSAS SWITZERLAND FIR SEV TURB FCST N OF LINE N4557 E00645 - N4705 E01007 3000FT/FL150 STNR NC=



MET'MAP, your aeronautical weather chart ! - Copyright ORBIFLY December 2007 - Disclaimer

ORBIFLY MET'MAP TEAM :

Programming & Development : Alexandra Zaïnal
Concept & Development : Baudouin d'Aumeries
Co-Development & Prog : Marc-Olivier Méhu
Technical & hardware support : Manuel Goepfert

Contact : metmap@orbifly.com




SOURCES & CREDITS :

   NOAA